(°C)
10°
10°
(°C)
SO
SO
SO
SO
SO
OSO
OSO
(km/h)
28-53
28-53
28-51
28-50
28-52
29-55
29-56
(mm)
0
0
0
0
0
0
0
(%)
12
14
14
15
15
14
23

Elevación del sol

/ -8.4°
sun-icon
UV 1
08:14
18:13
Gibosa menguante (222°)
19:32
12:21

METAR a 55.03°N 82.6°E (UNNT)

Hora Condiciones Temperatura/
Punto de condensación
Viento Visibilidad Tiempo Nubes Presión Cambiar Bruto
MVFR 8°C / 4°C 220º 14kt >10km - Overcast 2600ft 1015 No Significant change. Runway 25: Wet or puddles, 51-100% contamination with 1mm, friction coefficient 0.50. Runway 16: Wet or puddles, 51-100% contamination with 1mm, friction coefficient 0.55. UNNT 240000Z 22007MPS 9999 OVC026 08/04 Q1015 R25/290150 R16/290155 NOSIG RMK QFE751/1002
MVFR 8°C / 4°C 210º 14kt >10km - Overcast 2600ft 1015 No Significant change. Runway 25: Wet or puddles, 51-100% contamination with 1mm, friction coefficient 0.50. Runway 16: Wet or puddles, 51-100% contamination with 1mm, friction coefficient 0.55. UNNT 232330Z 21007MPS 9999 OVC026 08/04 Q1015 R25/290150 R16/290155 NOSIG RMK QFE751/1002
MVFR 8°C / 4°C 220º 16kt >10km - Overcast 2700ft 1015 No Significant change. Runway 25: Wet or puddles, 51-100% contamination with 1mm, friction coefficient 0.50. Runway 16: Wet or puddles, 51-100% contamination with 1mm, friction coefficient 0.55. UNNT 232300Z 22008MPS 9999 OVC027 08/04 Q1015 R25/290150 R16/290155 NOSIG RMK QFE751/1001
MVFR 8°C / 4°C 210º 14kt >10km - Broken Clouds 2700ft 1014 No Significant change. Runway 25: Wet or puddles, 51-100% contamination with 1mm, friction coefficient 0.50. Runway 16: Wet or puddles, 51-100% contamination with 1mm, friction coefficient 0.55. UNNT 232230Z 21007MPS 9999 BKN027 08/04 Q1014 R25/290150 R16/290155 NOSIG RMK QFE751/1001
MVFR 7°C / 4°C 210º 14kt >10km - Broken Clouds 2700ft 1014 No Significant change. Runway 25: Wet or puddles, 51-100% contamination with 1mm, friction coefficient 0.50. Runway 16: Wet or puddles, 51-100% contamination with 1mm, friction coefficient 0.55. UNNT 232200Z 21007MPS 9999 BKN027 07/04 Q1014 R25/290150 R16/290155 NOSIG RMK QFE751/1001
MVFR 7°C / 5°C 210º 12kt >10km - Broken Clouds 2800ft 1014 No Significant change. Runway 25: Wet or puddles, 51-100% contamination with 1mm, friction coefficient 0.50. Runway 16: Wet or puddles, 51-100% contamination with 1mm, friction coefficient 0.55. UNNT 232130Z 21006MPS 9999 BKN028 07/05 Q1014 R25/290150 R16/290155 NOSIG RMK QFE751/1001
VFR 7°C / 5°C 220º 16kt >10km Light Showers Rain 3.00mm precipitation Vertical Visibility of 0ft. 1014 No Significant change. Runway 25: Wet or puddles, 51-100% contamination with 1mm, friction coefficient 0.50. Runway 16: Wet or puddles, 51-100% contamination with 1mm, friction coefficient 0.55. UNNT 232100Z 22008MPS 9999 -SHRA OVC034CB 07/05 Q1014 R25/290150 R16/290155 NOSIG RMK QFE751/1001
MVFR 7°C / 5°C 220º 17kt >10km Light Showers Rain 3.00mm precipitation Vertical Visibility of 0ft. 1014 No Significant change. Runway 25: Wet or puddles, 51-100% contamination with 1mm, friction coefficient 0.50. Runway 16: Wet or puddles, 51-100% contamination with 1mm, friction coefficient 0.55. UNNT 232030Z 22009MPS 9999 -SHRA OVC022CB 07/05 Q1014 R25/290150 R16/290155 NOSIG RMK QFE751/1001
MVFR 7°C / 5°C 220º 17kt 9000m Light Rain 1.00mm precipitation Vertical Visibility of 0ft. 1014 No Significant change. Runway 25: Wet or puddles, 51-100% contamination with 1mm, friction coefficient 0.50. Runway 16: Wet or puddles, 51-100% contamination with 1mm, friction coefficient 0.55. UNNT 232000Z 22009MPS 9000 -RA OVC026 07/05 Q1014 R25/290150 R16/290155 NOSIG RMK QFE751/1001
MVFR 7°C / 5°C 220º 16kt >10km Light Rain 1.00mm precipitation Vertical Visibility of 0ft. 1014 No Significant change. Runway 25: Wet or puddles, 51-100% contamination with 1mm, friction coefficient 0.50. Runway 16: Wet or puddles, 51-100% contamination with 1mm, friction coefficient 0.55. UNNT 231930Z 22008MPS 9999 -RA OVC026 07/05 Q1014 R25/290150 R16/290155 NOSIG RMK QFE751/1001
VFR 7°C / 5°C 220º 16kt >10km - Overcast 3300ft 1014 No Significant change. Runway 25: Wet or puddles, 51-100% contamination with 1mm, friction coefficient 0.50. Runway 16: Wet or puddles, 51-100% contamination with 1mm, friction coefficient 0.55. UNNT 231900Z 22008MPS 9999 OVC033 07/05 Q1014 R25/290150 R16/290155 NOSIG RMK QFE751/1001
VFR 7°C / 4°C 220º 16kt >10km - Overcast 3300ft 1014 No Significant change. Runway 25: Wet or puddles, 51-100% contamination with 1mm, friction coefficient 0.50. Runway 16: Wet or puddles, 51-100% contamination with 1mm, friction coefficient 0.55. UNNT 231830Z 22008MPS 9999 OVC033 07/04 Q1014 R25/290150 R16/290155 NOSIG RMK QFE751/1001
MVFR 6°C / 5°C 210º 16kt >10km - Scattered Clouds 1100ft
Overcast 2100ft
1014 No Significant change. Runway 25: Wet or puddles, 51-100% contamination with 1mm, friction coefficient 0.50. Runway 16: Wet or puddles, 51-100% contamination with 1mm, friction coefficient 0.55. UNNT 231800Z 21008MPS 9999 SCT011 OVC021 06/05 Q1014 R25/290150 R16/290155 NOSIG RMK QFE751/1001
MVFR 6°C / 5°C 220º 16kt >10km - Broken Clouds 1100ft
Overcast 2100ft
1015 No Significant change. Runway 25: Wet or puddles, 51-100% contamination with 1mm, friction coefficient 0.50. Runway 16: Wet or puddles, 51-100% contamination with 1mm, friction coefficient 0.55. UNNT 231730Z 22008MPS 9999 BKN011 OVC021 06/05 Q1015 R25/290150 R16/290155 NOSIG RMK QFE751/1001
MVFR 6°C / 5°C 230º 17kt Gust 27kt >10km - Broken Clouds 1100ft
Overcast 2100ft
1015 No Significant change. Runway 25: Wet or puddles, 51-100% contamination with 1mm, friction coefficient 0.50. Runway 16: Wet or puddles, 51-100% contamination with 1mm, friction coefficient 0.55. UNNT 231700Z 23009G14MPS 9999 BKN011 OVC021 06/05 Q1015 R25/290150 R16/290155 NOSIG RMK QFE751/1001
MVFR 6°C / 5°C 220º 17kt >10km - Broken Clouds 1100ft
Overcast 2100ft
1015 No Significant change. Runway 25: Wet or puddles, 51-100% contamination with 1mm, friction coefficient 0.50. Runway 16: Wet or puddles, 51-100% contamination with 1mm, friction coefficient 0.55. UNNT 231630Z 22009MPS 9999 BKN011 OVC021 06/05 Q1015 R25/290150 R16/290155 NOSIG RMK QFE751/1001
MVFR 6°C / 5°C 220º 17kt Gust 27kt >10km - Broken Clouds 1100ft
Overcast 2100ft
1014 No Significant change. Runway 25: Wet or puddles, 51-100% contamination with 1mm, friction coefficient 0.50. Runway 16: Wet or puddles, 51-100% contamination with 1mm, friction coefficient 0.55. UNNT 231600Z 22009G14MPS 9999 BKN011 OVC021CB 06/05 Q1014 R25/290150 R16/290155 NOSIG RMK QFE751/1001
MVFR 6°C / 4°C 220º 17kt >10km Light Showers Rain 3.00mm precipitation Vertical Visibility of 0ft.
Overcast 2100ft
1015 No Significant change. Runway 25: Wet or puddles, 51-100% contamination with 1mm, friction coefficient 0.50. Runway 16: Wet or puddles, 51-100% contamination with 1mm, friction coefficient 0.55. UNNT 231530Z 22009MPS 9999 -SHRA BKN011 OVC021CB 06/04 Q1015 R25/290150 R16/290155 NOSIG RMK QFE751/1001
MVFR 5°C / 5°C 220º 17kt Gust 27kt 9000m Light Showers Rain 3.00mm precipitation Vertical Visibility of 0ft.
Overcast 2400ft
1015 No Significant change. Runway 25: Wet or puddles, 51-100% contamination with 1mm, friction coefficient 0.50. Runway 16: Wet or puddles, 51-100% contamination with 1mm, friction coefficient 0.55. UNNT 231500Z 22009G14MPS 9000 -SHRA BKN010 OVC024CB 05/05 Q1015 R25/290150 R16/290155 NOSIG RMK QFE751/1001
MVFR 5°C / 4°C 220º 17kt Gust 27kt 8000m Light Showers Rain 3.00mm precipitation Vertical Visibility of 0ft.
Overcast 2400ft
1015 No Significant change. Runway 25: Wet or puddles, 51-100% contamination with 1mm, friction coefficient 0.50. Runway 16: Wet or puddles, 51-100% contamination with 1mm, friction coefficient 0.55. UNNT 231430Z 22009G14MPS 8000 -SHRA BKN010 OVC024CB 05/04 Q1015 R25/290150 R16/290155 NOSIG RMK QFE751/1001
MVFR 5°C / 4°C 220º 17kt >10km Light Showers Rain 3.00mm precipitation Vertical Visibility of 0ft.
Overcast 2400ft
1015 No Significant change. Runway 25: Wet or puddles, 51-100% contamination with 1mm, friction coefficient 0.50. Runway 16: Wet or puddles, 51-100% contamination with 1mm, friction coefficient 0.55. UNNT 231400Z 22009MPS 9999 -SHRA BKN010 OVC024CB 05/04 Q1015 R25/290150 R16/290155 NOSIG RMK QFE751/1001
MVFR 5°C / 4°C 210º 17kt Gust 27kt >10km Light Showers Rain 3.00mm precipitation Vertical Visibility of 0ft.
Overcast 2500ft
1015 No Significant change. Runway 25: Wet or puddles, 51-100% contamination with 1mm, friction coefficient 0.50. Runway 16: Wet or puddles, 51-100% contamination with 1mm, friction coefficient 0.55. UNNT 231330Z 21009G14MPS 9999 -SHRA BKN010 OVC025CB 05/04 Q1015 R25/290150 R16/290155 NOSIG RMK QFE751/1002
MVFR 4°C / 4°C 210º 17kt 5000m Light Showers Rain 3.00mm precipitation Vertical Visibility of 0ft.
Overcast 2100ft
1015 No Significant change. Runway 25: Wet or puddles, 51-100% contamination with 1mm, friction coefficient 0.55. Runway 16: Wet or puddles, 51-100% contamination with 1mm, friction coefficient 0.55. UNNT 231300Z 21009MPS 5000 -SHRA BKN011 OVC021CB 04/04 Q1015 R25/290155 R16/290155 NOSIG RMK QFE751/1002
MVFR 4°C / 3°C 220º 19kt Gust 31kt 9000m - Broken Clouds 1200ft
Overcast 2000ft
1015 No Significant change. Runway 25: Wet or puddles, 51-100% contamination with 1mm, friction coefficient 0.55. Runway 16: Wet or puddles, 51-100% contamination with 1mm, friction coefficient 0.55. UNNT 231230Z 22010G16MPS 9000 BKN012 OVC020CB 04/03 Q1015 R25/290155 R16/290155 NOSIG RMK QFE751/1002

MVFR

8°C / 4°C

[Más]
Viento 220º 14kt
Visibilidad >10km
Tiempo -
Nubes Overcast 2600ft
Presión 1015
Cambiar No Significant change. Runway 25: Wet or puddles, 51-100% contamination with 1mm, friction coefficient 0.50. Runway 16: Wet or puddles, 51-100% contamination with 1mm, friction coefficient 0.55.
Bruto UNNT 240000Z 22007MPS 9999 OVC026 08/04 Q1015 R25/290150 R16/290155 NOSIG RMK QFE751/1002

MVFR

8°C / 4°C

[Más]
Viento 210º 14kt
Visibilidad >10km
Tiempo -
Nubes Overcast 2600ft
Presión 1015
Cambiar No Significant change. Runway 25: Wet or puddles, 51-100% contamination with 1mm, friction coefficient 0.50. Runway 16: Wet or puddles, 51-100% contamination with 1mm, friction coefficient 0.55.
Bruto UNNT 232330Z 21007MPS 9999 OVC026 08/04 Q1015 R25/290150 R16/290155 NOSIG RMK QFE751/1002

MVFR

8°C / 4°C

[Más]
Viento 220º 16kt
Visibilidad >10km
Tiempo -
Nubes Overcast 2700ft
Presión 1015
Cambiar No Significant change. Runway 25: Wet or puddles, 51-100% contamination with 1mm, friction coefficient 0.50. Runway 16: Wet or puddles, 51-100% contamination with 1mm, friction coefficient 0.55.
Bruto UNNT 232300Z 22008MPS 9999 OVC027 08/04 Q1015 R25/290150 R16/290155 NOSIG RMK QFE751/1001

MVFR

8°C / 4°C

[Más]
Viento 210º 14kt
Visibilidad >10km
Tiempo -
Nubes Broken Clouds 2700ft
Presión 1014
Cambiar No Significant change. Runway 25: Wet or puddles, 51-100% contamination with 1mm, friction coefficient 0.50. Runway 16: Wet or puddles, 51-100% contamination with 1mm, friction coefficient 0.55.
Bruto UNNT 232230Z 21007MPS 9999 BKN027 08/04 Q1014 R25/290150 R16/290155 NOSIG RMK QFE751/1001

MVFR

7°C / 4°C

[Más]
Viento 210º 14kt
Visibilidad >10km
Tiempo -
Nubes Broken Clouds 2700ft
Presión 1014
Cambiar No Significant change. Runway 25: Wet or puddles, 51-100% contamination with 1mm, friction coefficient 0.50. Runway 16: Wet or puddles, 51-100% contamination with 1mm, friction coefficient 0.55.
Bruto UNNT 232200Z 21007MPS 9999 BKN027 07/04 Q1014 R25/290150 R16/290155 NOSIG RMK QFE751/1001

MVFR

7°C / 5°C

[Más]
Viento 210º 12kt
Visibilidad >10km
Tiempo -
Nubes Broken Clouds 2800ft
Presión 1014
Cambiar No Significant change. Runway 25: Wet or puddles, 51-100% contamination with 1mm, friction coefficient 0.50. Runway 16: Wet or puddles, 51-100% contamination with 1mm, friction coefficient 0.55.
Bruto UNNT 232130Z 21006MPS 9999 BKN028 07/05 Q1014 R25/290150 R16/290155 NOSIG RMK QFE751/1001

VFR

7°C / 5°C

[Más]
Viento 220º 16kt
Visibilidad >10km
Tiempo Light Showers Rain 3.00mm precipitation
Nubes Vertical Visibility of 0ft.
Presión 1014
Cambiar No Significant change. Runway 25: Wet or puddles, 51-100% contamination with 1mm, friction coefficient 0.50. Runway 16: Wet or puddles, 51-100% contamination with 1mm, friction coefficient 0.55.
Bruto UNNT 232100Z 22008MPS 9999 -SHRA OVC034CB 07/05 Q1014 R25/290150 R16/290155 NOSIG RMK QFE751/1001

MVFR

7°C / 5°C

[Más]
Viento 220º 17kt
Visibilidad >10km
Tiempo Light Showers Rain 3.00mm precipitation
Nubes Vertical Visibility of 0ft.
Presión 1014
Cambiar No Significant change. Runway 25: Wet or puddles, 51-100% contamination with 1mm, friction coefficient 0.50. Runway 16: Wet or puddles, 51-100% contamination with 1mm, friction coefficient 0.55.
Bruto UNNT 232030Z 22009MPS 9999 -SHRA OVC022CB 07/05 Q1014 R25/290150 R16/290155 NOSIG RMK QFE751/1001

MVFR

7°C / 5°C

[Más]
Viento 220º 17kt
Visibilidad 9000m
Tiempo Light Rain 1.00mm precipitation
Nubes Vertical Visibility of 0ft.
Presión 1014
Cambiar No Significant change. Runway 25: Wet or puddles, 51-100% contamination with 1mm, friction coefficient 0.50. Runway 16: Wet or puddles, 51-100% contamination with 1mm, friction coefficient 0.55.
Bruto UNNT 232000Z 22009MPS 9000 -RA OVC026 07/05 Q1014 R25/290150 R16/290155 NOSIG RMK QFE751/1001

MVFR

7°C / 5°C

[Más]
Viento 220º 16kt
Visibilidad >10km
Tiempo Light Rain 1.00mm precipitation
Nubes Vertical Visibility of 0ft.
Presión 1014
Cambiar No Significant change. Runway 25: Wet or puddles, 51-100% contamination with 1mm, friction coefficient 0.50. Runway 16: Wet or puddles, 51-100% contamination with 1mm, friction coefficient 0.55.
Bruto UNNT 231930Z 22008MPS 9999 -RA OVC026 07/05 Q1014 R25/290150 R16/290155 NOSIG RMK QFE751/1001

VFR

7°C / 5°C

[Más]
Viento 220º 16kt
Visibilidad >10km
Tiempo -
Nubes Overcast 3300ft
Presión 1014
Cambiar No Significant change. Runway 25: Wet or puddles, 51-100% contamination with 1mm, friction coefficient 0.50. Runway 16: Wet or puddles, 51-100% contamination with 1mm, friction coefficient 0.55.
Bruto UNNT 231900Z 22008MPS 9999 OVC033 07/05 Q1014 R25/290150 R16/290155 NOSIG RMK QFE751/1001

VFR

7°C / 4°C

[Más]
Viento 220º 16kt
Visibilidad >10km
Tiempo -
Nubes Overcast 3300ft
Presión 1014
Cambiar No Significant change. Runway 25: Wet or puddles, 51-100% contamination with 1mm, friction coefficient 0.50. Runway 16: Wet or puddles, 51-100% contamination with 1mm, friction coefficient 0.55.
Bruto UNNT 231830Z 22008MPS 9999 OVC033 07/04 Q1014 R25/290150 R16/290155 NOSIG RMK QFE751/1001

MVFR

6°C / 5°C

[Más]
Viento 210º 16kt
Visibilidad >10km
Tiempo -
Nubes Scattered Clouds 1100ft
Overcast 2100ft
Presión 1014
Cambiar No Significant change. Runway 25: Wet or puddles, 51-100% contamination with 1mm, friction coefficient 0.50. Runway 16: Wet or puddles, 51-100% contamination with 1mm, friction coefficient 0.55.
Bruto UNNT 231800Z 21008MPS 9999 SCT011 OVC021 06/05 Q1014 R25/290150 R16/290155 NOSIG RMK QFE751/1001

MVFR

6°C / 5°C

[Más]
Viento 220º 16kt
Visibilidad >10km
Tiempo -
Nubes Broken Clouds 1100ft
Overcast 2100ft
Presión 1015
Cambiar No Significant change. Runway 25: Wet or puddles, 51-100% contamination with 1mm, friction coefficient 0.50. Runway 16: Wet or puddles, 51-100% contamination with 1mm, friction coefficient 0.55.
Bruto UNNT 231730Z 22008MPS 9999 BKN011 OVC021 06/05 Q1015 R25/290150 R16/290155 NOSIG RMK QFE751/1001

MVFR

6°C / 5°C

[Más]
Viento 230º 17kt Gust 27kt
Visibilidad >10km
Tiempo -
Nubes Broken Clouds 1100ft
Overcast 2100ft
Presión 1015
Cambiar No Significant change. Runway 25: Wet or puddles, 51-100% contamination with 1mm, friction coefficient 0.50. Runway 16: Wet or puddles, 51-100% contamination with 1mm, friction coefficient 0.55.
Bruto UNNT 231700Z 23009G14MPS 9999 BKN011 OVC021 06/05 Q1015 R25/290150 R16/290155 NOSIG RMK QFE751/1001

MVFR

6°C / 5°C

[Más]
Viento 220º 17kt
Visibilidad >10km
Tiempo -
Nubes Broken Clouds 1100ft
Overcast 2100ft
Presión 1015
Cambiar No Significant change. Runway 25: Wet or puddles, 51-100% contamination with 1mm, friction coefficient 0.50. Runway 16: Wet or puddles, 51-100% contamination with 1mm, friction coefficient 0.55.
Bruto UNNT 231630Z 22009MPS 9999 BKN011 OVC021 06/05 Q1015 R25/290150 R16/290155 NOSIG RMK QFE751/1001

MVFR

6°C / 5°C

[Más]
Viento 220º 17kt Gust 27kt
Visibilidad >10km
Tiempo -
Nubes Broken Clouds 1100ft
Overcast 2100ft
Presión 1014
Cambiar No Significant change. Runway 25: Wet or puddles, 51-100% contamination with 1mm, friction coefficient 0.50. Runway 16: Wet or puddles, 51-100% contamination with 1mm, friction coefficient 0.55.
Bruto UNNT 231600Z 22009G14MPS 9999 BKN011 OVC021CB 06/05 Q1014 R25/290150 R16/290155 NOSIG RMK QFE751/1001

MVFR

6°C / 4°C

[Más]
Viento 220º 17kt
Visibilidad >10km
Tiempo Light Showers Rain 3.00mm precipitation
Nubes Vertical Visibility of 0ft.
Overcast 2100ft
Presión 1015
Cambiar No Significant change. Runway 25: Wet or puddles, 51-100% contamination with 1mm, friction coefficient 0.50. Runway 16: Wet or puddles, 51-100% contamination with 1mm, friction coefficient 0.55.
Bruto UNNT 231530Z 22009MPS 9999 -SHRA BKN011 OVC021CB 06/04 Q1015 R25/290150 R16/290155 NOSIG RMK QFE751/1001

MVFR

5°C / 5°C

[Más]
Viento 220º 17kt Gust 27kt
Visibilidad 9000m
Tiempo Light Showers Rain 3.00mm precipitation
Nubes Vertical Visibility of 0ft.
Overcast 2400ft
Presión 1015
Cambiar No Significant change. Runway 25: Wet or puddles, 51-100% contamination with 1mm, friction coefficient 0.50. Runway 16: Wet or puddles, 51-100% contamination with 1mm, friction coefficient 0.55.
Bruto UNNT 231500Z 22009G14MPS 9000 -SHRA BKN010 OVC024CB 05/05 Q1015 R25/290150 R16/290155 NOSIG RMK QFE751/1001

MVFR

5°C / 4°C

[Más]
Viento 220º 17kt Gust 27kt
Visibilidad 8000m
Tiempo Light Showers Rain 3.00mm precipitation
Nubes Vertical Visibility of 0ft.
Overcast 2400ft
Presión 1015
Cambiar No Significant change. Runway 25: Wet or puddles, 51-100% contamination with 1mm, friction coefficient 0.50. Runway 16: Wet or puddles, 51-100% contamination with 1mm, friction coefficient 0.55.
Bruto UNNT 231430Z 22009G14MPS 8000 -SHRA BKN010 OVC024CB 05/04 Q1015 R25/290150 R16/290155 NOSIG RMK QFE751/1001

MVFR

5°C / 4°C

[Más]
Viento 220º 17kt
Visibilidad >10km
Tiempo Light Showers Rain 3.00mm precipitation
Nubes Vertical Visibility of 0ft.
Overcast 2400ft
Presión 1015
Cambiar No Significant change. Runway 25: Wet or puddles, 51-100% contamination with 1mm, friction coefficient 0.50. Runway 16: Wet or puddles, 51-100% contamination with 1mm, friction coefficient 0.55.
Bruto UNNT 231400Z 22009MPS 9999 -SHRA BKN010 OVC024CB 05/04 Q1015 R25/290150 R16/290155 NOSIG RMK QFE751/1001

MVFR

5°C / 4°C

[Más]
Viento 210º 17kt Gust 27kt
Visibilidad >10km
Tiempo Light Showers Rain 3.00mm precipitation
Nubes Vertical Visibility of 0ft.
Overcast 2500ft
Presión 1015
Cambiar No Significant change. Runway 25: Wet or puddles, 51-100% contamination with 1mm, friction coefficient 0.50. Runway 16: Wet or puddles, 51-100% contamination with 1mm, friction coefficient 0.55.
Bruto UNNT 231330Z 21009G14MPS 9999 -SHRA BKN010 OVC025CB 05/04 Q1015 R25/290150 R16/290155 NOSIG RMK QFE751/1002

MVFR

4°C / 4°C

[Más]
Viento 210º 17kt
Visibilidad 5000m
Tiempo Light Showers Rain 3.00mm precipitation
Nubes Vertical Visibility of 0ft.
Overcast 2100ft
Presión 1015
Cambiar No Significant change. Runway 25: Wet or puddles, 51-100% contamination with 1mm, friction coefficient 0.55. Runway 16: Wet or puddles, 51-100% contamination with 1mm, friction coefficient 0.55.
Bruto UNNT 231300Z 21009MPS 5000 -SHRA BKN011 OVC021CB 04/04 Q1015 R25/290155 R16/290155 NOSIG RMK QFE751/1002

MVFR

4°C / 3°C

[Más]
Viento 220º 19kt Gust 31kt
Visibilidad 9000m
Tiempo -
Nubes Broken Clouds 1200ft
Overcast 2000ft
Presión 1015
Cambiar No Significant change. Runway 25: Wet or puddles, 51-100% contamination with 1mm, friction coefficient 0.55. Runway 16: Wet or puddles, 51-100% contamination with 1mm, friction coefficient 0.55.
Bruto UNNT 231230Z 22010G16MPS 9000 BKN012 OVC020CB 04/03 Q1015 R25/290155 R16/290155 NOSIG RMK QFE751/1002

TAF a 55.03°N 82.6°E (UNNT)

From till


From till Wind 230º 17kt. Gust 33kt. Visibility 10km or more. Broken Clouds 3200ft.
Temporarly from till Light Showers Rain . Overcast 1600ft.
Becoming from till Wind 210º 10kt. Gust 23kt. Visibility 10km or more. Broken Clouds 4000ft.
Temporarly from till Light Rain . Broken Clouds 1600ft.

Bruto: TAF UNNT 232300Z 2400/2424 23009G17MPS 9999 BKN032CB TEMPO 2400/2411 -SHRA OVC016CB BECMG 2411/2414 21005G12MPS BKN040 TEMPO 2417/2424 -RA BKN016

Imágenes actuales de satélite y lluvia para 55.03°N 82.6°E

El marcador de lugar se coloca en 55.03°N 82.6°E. [Más]

La imagen de satélite en tiempo real se aprovecha de la combinación de bandas de la luz visible y de la luz infrarrojo. Como se puede detectar cambios de temperaturas atreves de la banda infrarrojo, la imagen no está escura de noche. No obstante, la niebla y las nubes bajas son apenas visibles en las imágenes infrarrojo como las diferencias de temperaturas entre el suelo y la niebla son muy pequeñas. Por eso son casi invisibles durante la noche. Las imágenes de satélite del Meteosat (Europa) son actualizados en tiempo real cada 5 minutos. Las imágenes del GOES-16/GOES-17 (América del Norte y América del Sur) y Himawari (Asia) son actualizados cada 10 minutos.

Copyright 2021 EUMETSAT / meteoblue. / Copyright 2021 meteoblue

Radar y precipitación nowcast para 55.03°N 82.6°E

llovizna
Leve
Moderado
Fuerte
Muy fuerte
Granizo

El marcador de lugar se coloca en 55.03°N 82.6°E. Esta animación muestra lo radar de precipitaciones hasta la última hora, así como la 1h previsión. Las lloviznas o las nevadas ligeras pueden ser invisibles para el radar. La intensidad de la precipitación está codificada por colores, que van del azul claro al naranja.